Time;durP1;ratioP1;P1;durP2;ratioP2;P2;SDS_P1;SDS_P2;PMS_P1;PMS_P2;Temp;Humidity;BMP_temperature;BMP_pressure;BME280_temperature;BME280_humidity;BME280_pressure;Samples;Min_cycle;Max_cycle;Signal;HPM_P1;HPM_P2
2022/05/08 00:02:07;;;;;;;7.00;3.37;;;;;;;5.45;100.00;101627.44;1770139;81;20992;-43
2022/05/08 00:04:34;;;;;;;12.85;3.50;;;;;;;5.40;100.00;101628.17;1750935;81;21043;-43
2022/05/08 00:07:00;;;;;;;7.00;3.67;;;;;;;5.38;100.00;101633.69;1770074;81;20989;-43
2022/05/08 00:09:27;;;;;;;8.30;4.10;;;;;;;5.35;100.00;101633.63;1770088;81;21247;-43
2022/05/08 00:11:54;;;;;;;15.23;5.25;;;;;;;5.32;100.00;101630.16;1770007;80;20972;-43
2022/05/08 00:14:20;;;;;;;9.70;4.78;;;;;;;5.25;100.00;101628.70;1770190;80;21407;-43
2022/05/08 00:16:48;;;;;;;7.28;4.35;;;;;;;5.14;100.00;101634.44;1750907;81;20953;-43
2022/05/08 00:19:14;;;;;;;11.78;4.78;;;;;;;5.02;100.00;101637.59;1770107;80;20936;-43
2022/05/08 00:21:43;;;;;;;12.50;5.70;;;;;;;4.93;100.00;101634.81;1770204;80;21479;-43
2022/05/08 00:24:10;;;;;;;10.95;6.62;;;;;;;4.84;100.00;101630.33;1769986;81;20916;-43
2022/05/08 00:26:36;;;;;;;14.83;6.87;;;;;;;4.77;100.00;101634.86;1770172;81;20936;-43
2022/05/08 00:29:03;;;;;;;11.50;6.15;;;;;;;4.66;100.00;101635.88;1770118;80;20893;-43
2022/05/08 00:31:29;;;;;;;16.25;6.50;;;;;;;4.60;100.00;101639.15;1770170;81;21491;-44
2022/05/08 00:33:56;;;;;;;7.17;5.70;;;;;;;4.56;100.00;101641.19;1769937;81;21136;-43
2022/05/08 00:36:23;;;;;;;11.05;6.28;;;;;;;4.56;100.00;101641.19;1769993;80;21447;-43
2022/05/08 00:38:49;;;;;;;17.50;6.72;;;;;;;4.55;100.00;101636.05;1770020;80;21039;-43
2022/05/08 00:41:16;;;;;;;19.73;6.35;;;;;;;4.55;100.00;101636.89;1769952;80;20977;-43
2022/05/08 00:43:43;;;;;;;9.83;6.20;;;;;;;4.55;100.00;101633.48;1770004;81;20984;-43
2022/05/08 00:46:12;;;;;;;16.70;6.50;;;;;;;4.51;100.00;101637.64;1770135;81;21506;-44
2022/05/08 00:48:41;;;;;;;20.27;6.60;;;;;;;4.42;100.00;101632.27;1769934;80;20976;-44
2022/05/08 00:51:10;;;;;;;16.27;6.72;;;;;;;4.36;100.00;101635.95;1770048;81;20957;-43
2022/05/08 00:53:42;;;;;;;18.65;7.85;;;;;;;4.32;100.00;101631.19;1769904;80;20948;-43
2022/05/08 00:56:11;;;;;;;16.60;7.10;;;;;;;4.27;100.00;101624.64;1770102;81;21506;-43
2022/05/08 00:58:40;;;;;;;9.28;6.03;;;;;;;4.33;100.00;101632.03;1769969;81;21083;-43
2022/05/08 01:01:07;;;;;;;16.40;5.83;;;;;;;4.33;100.00;101632.03;1769969;81;20932;-43
2022/05/08 01:03:33;;;;;;;15.90;5.78;;;;;;;4.29;100.00;101629.39;1770208;80;21613;-43
2022/05/08 01:06:06;;;;;;;18.25;6.87;;;;;;;4.26;100.00;101628.44;1770038;81;20991;-43
2022/05/08 01:08:34;;;;;;;13.85;6.03;;;;;;;4.22;100.00;101623.66;1770077;80;21007;-43
2022/05/08 01:11:02;;;;;;;12.37;5.85;;;;;;;4.18;100.00;101625.69;1770093;80;21094;-43
2022/05/08 01:13:29;;;;;;;11.85;5.90;;;;;;;4.15;100.00;101623.91;1769901;80;20972;-43
2022/05/08 01:15:56;;;;;;;11.97;5.12;;;;;;;4.14;100.00;101619.61;1769971;80;20873;-43
2022/05/08 01:18:23;;;;;;;11.60;6.10;;;;;;;4.16;100.00;101617.06;1770010;81;20890;-43
2022/05/08 01:20:50;;;;;;;10.95;5.78;;;;;;;4.16;100.00;101617.06;1770153;81;20932;-43
2022/05/08 01:23:18;;;;;;;19.82;6.05;;;;;;;4.14;100.00;101616.16;1770154;81;21207;-43
2022/05/08 01:25:52;;;;;;;12.58;7.22;;;;;;;4.08;100.00;101611.76;1770096;81;20984;-43
2022/05/08 01:28:20;;;;;;;16.55;7.55;;;;;;;4.00;100.00;101619.23;1769971;80;20936;-43
2022/05/08 01:30:49;;;;;;;13.55;6.75;;;;;;;3.93;100.00;101617.73;1770119;81;21007;-43
2022/05/08 01:33:16;;;;;;;19.02;6.95;;;;;;;3.80;100.00;101605.88;1770322;80;20960;-43
2022/05/08 01:35:43;;;;;;;12.15;6.58;;;;;;;3.80;100.00;101605.88;1773504;80;21149;-43
2022/05/08 01:38:12;;;;;;;10.65;6.85;;;;;;;3.72;100.00;101608.22;1747503;80;20928;-43
2022/05/08 01:40:39;;;;;;;20.37;7.55;;;;;;;3.65;100.00;101611.41;1775526;80;20966;-43
2022/05/08 01:43:06;;;;;;;18.92;8.05;;;;;;;3.53;100.00;101607.23;1775655;80;20936;-43
2022/05/08 01:45:33;;;;;;;13.80;8.08;;;;;;;3.53;100.00;101607.23;1775648;80;20916;-43
2022/05/08 01:50:45;;;;;;;13.13;6.12;;;;;;;3.42;100.00;101606.91;1775864;80;21442;-42
2022/05/08 01:53:12;;;;;;;13.18;6.08;;;;;;;3.35;100.00;101610.98;1775696;80;20976;-43
2022/05/08 01:55:38;;;;;;;15.93;6.00;;;;;;;3.35;100.00;101610.98;1775494;80;21523;-43
2022/05/08 01:58:05;;;;;;;15.00;6.95;;;;;;;3.34;100.00;101616.07;1775593;80;20956;-42
2022/05/08 02:00:32;;;;;;;19.95;5.80;;;;;;;3.36;100.00;101612.71;1775722;80;21455;-42
2022/05/08 02:03:00;;;;;;;12.20;7.33;;;;;;;3.38;100.00;101619.17;1775699;80;20884;-42
2022/05/08 02:05:28;;;;;;;19.67;6.78;;;;;;;3.44;100.00;101612.55;1775705;80;20983;-43
2022/05/08 02:07:55;;;;;;;11.80;6.30;;;;;;;3.44;100.00;101612.55;1775681;80;20960;-43
2022/05/08 02:10:23;;;;;;;16.95;7.08;;;;;;;3.50;100.00;101605.87;1775684;80;20985;-43
2022/05/08 02:12:49;;;;;;;14.40;6.87;;;;;;;3.53;100.00;101611.07;1775682;80;21490;-43
2022/05/08 02:15:16;;;;;;;17.60;7.92;;;;;;;3.55;100.00;101603.02;1772949;80;21015;-42
2022/05/08 02:17:44;;;;;;;17.73;9.00;;;;;;;3.57;100.00;101611.61;1775549;80;20897;-43
2022/05/08 02:20:11;;;;;;;10.75;7.50;;;;;;;3.56;100.00;101608.20;1773123;80;21479;-43
2022/05/08 02:22:38;;;;;;;12.47;6.40;;;;;;;3.56;100.00;101608.20;1775690;80;21011;-43
2022/05/08 02:25:07;;;;;;;12.55;5.47;;;;;;;3.61;100.00;101612.58;1775904;80;21954;-43
2022/05/08 02:27:40;;;;;;;8.40;6.00;;;;;;;3.65;100.00;101610.56;1775819;80;20881;-42
2022/05/08 02:30:09;;;;;;;10.05;5.72;;;;;;;3.71;100.00;101610.33;1775216;80;21494;-41
2022/05/08 02:32:37;;;;;;;9.75;5.97;;;;;;;3.78;100.00;101614.34;1775601;80;21443;-41
2022/05/08 02:35:06;;;;;;;13.72;7.50;;;;;;;3.83;100.00;101619.17;1775560;80;20841;-41
2022/05/08 02:37:33;;;;;;;16.00;6.72;;;;;;;3.88;100.00;101626.56;1775643;80;21021;-41
2022/05/08 02:40:00;;;;;;;12.75;6.58;;;;;;;3.93;100.00;101628.87;1775474;80;20956;-41
2022/05/08 02:42:27;;;;;;;32.33;7.37;;;;;;;3.99;100.00;101633.27;1775838;80;21498;-41
2022/05/08 02:44:54;;;;;;;15.45;5.80;;;;;;;4.13;100.00;101638.38;1775612;80;20961;-41
2022/05/08 02:47:21;;;;;;;12.18;6.55;;;;;;;4.13;100.00;101638.38;1775670;80;20873;-42
2022/05/08 02:49:48;;;;;;;9.60;5.60;;;;;;;4.26;100.00;101634.84;1775513;80;21294;-42
2022/05/08 02:52:15;;;;;;;13.98;6.05;;;;;;;4.37;100.00;101637.69;1775669;80;21399;-42
2022/05/08 02:54:42;;;;;;;10.13;5.80;;;;;;;4.45;100.00;101636.22;1775566;80;20960;-43
2022/05/08 02:59:53;;;;;;;11.80;6.15;;;;;;;4.65;100.00;101642.24;1775945;80;21046;-43
2022/05/08 03:02:20;;;;;;;8.80;5.47;;;;;;;4.75;100.00;101643.80;1775777;80;21417;-44
2022/05/08 03:04:47;;;;;;;13.35;7.20;;;;;;;4.85;100.00;101642.32;1775515;80;20917;-44
2022/05/08 03:07:13;;;;;;;14.63;6.08;;;;;;;4.97;100.00;101639.62;1775535;80;20936;-44
2022/05/08 03:09:40;;;;;;;11.45;6.53;;;;;;;5.06;100.00;101638.97;1775535;80;20885;-43
2022/05/08 03:12:09;;;;;;;10.10;5.37;;;;;;;5.13;100.00;101633.14;1773034;80;20928;-43
2022/05/08 03:14:38;;;;;;;9.58;5.60;;;;;;;5.24;100.00;101635.52;1775579;80;21688;-44
2022/05/08 03:17:05;;;;;;;12.15;5.33;;;;;;;5.33;100.00;101641.28;1775533;80;20897;-43
2022/05/08 03:19:32;;;;;;;8.35;4.97;;;;;;;5.43;100.00;101644.92;1772914;80;20924;-43
2022/05/08 03:21:59;;;;;;;13.13;4.80;;;;;;;5.50;100.00;101644.64;1773046;80;20991;-43
2022/05/08 03:24:28;;;;;;;9.98;4.35;;;;;;;5.57;100.00;101640.08;1773027;80;20947;-43
2022/05/08 03:26:55;;;;;;;12.65;4.97;;;;;;;5.65;100.00;101647.95;1748287;80;21251;-43
2022/05/08 03:29:23;;;;;;;7.55;4.12;;;;;;;5.74;100.00;101639.14;1775566;80;20965;-43
2022/05/08 03:31:50;;;;;;;15.05;4.87;;;;;;;5.83;100.00;101637.19;1775452;80;20888;-43
2022/05/08 03:34:17;;;;;;;10.80;4.03;;;;;;;5.98;100.00;101641.76;1775536;80;21555;-43
2022/05/08 03:36:44;;;;;;;8.90;4.30;;;;;;;6.12;100.00;101644.63;1769553;80;20885;-43
2022/05/08 03:39:13;;;;;;;4.85;3.80;;;;;;;6.29;100.00;101643.25;1767502;80;21649;-42
2022/05/08 03:41:41;;;;;;;9.03;3.77;;;;;;;6.51;100.00;101651.76;1768472;80;20964;-43
2022/05/08 03:44:07;;;;;;;9.00;3.30;;;;;;;6.78;100.00;101649.20;1768243;81;21395;-43
2022/05/08 03:46:34;;;;;;;11.30;3.90;;;;;;;7.10;100.00;101654.02;1768259;80;21000;-44
2022/05/08 03:49:01;;;;;;;13.25;3.02;;;;;;;7.46;100.00;101654.09;1742469;81;21435;-44
2022/05/08 03:51:28;;;;;;;9.05;3.87;;;;;;;7.88;100.00;101655.91;1767753;80;21082;-44
2022/05/08 03:53:55;;;;;;;5.65;3.40;;;;;;;8.30;100.00;101659.82;1768066;80;20976;-44
2022/05/08 03:56:21;;;;;;;7.83;3.27;;;;;;;8.73;100.00;101659.83;1768268;80;20913;-44
2022/05/08 03:58:48;;;;;;;6.47;2.80;;;;;;;9.16;98.25;101653.67;1768117;80;20992;-42
2022/05/08 04:01:15;;;;;;;7.47;2.52;;;;;;;9.61;95.27;101657.82;1768227;81;21478;-44
2022/05/08 04:03:41;;;;;;;31.20;4.58;;;;;;;10.03;90.58;101652.80;1768272;80;21040;-43
2022/05/08 04:06:08;;;;;;;9.85;3.10;;;;;;;10.43;84.90;101661.53;1768280;80;21209;-44
2022/05/08 04:08:35;;;;;;;10.98;2.90;;;;;;;10.75;79.04;101666.73;1768098;81;20968;-44
2022/05/08 04:11:03;;;;;;;7.28;3.00;;;;;;;11.06;76.42;101664.13;1767611;80;20909;-43
2022/05/08 04:13:31;;;;;;;8.28;3.05;;;;;;;11.32;72.06;101667.55;1768196;81;20849;-43
2022/05/08 04:16:16;;;;;;;4.72;3.05;;;;;;;11.61;66.50;101666.61;1768248;80;21139;-43
2022/05/08 04:18:43;;;;;;;10.98;2.90;;;;;;;11.85;63.28;101667.37;1768204;81;21005;-43
2022/05/08 04:21:10;;;;;;;6.37;2.62;;;;;;;12.09;59.57;101663.81;1768203;81;20949;-43
2022/05/08 04:26:22;;;;;;;11.22;2.70;;;;;;;12.46;55.51;101671.81;1768538;80;20980;-43
2022/05/08 04:28:50;;;;;;;9.40;2.70;;;;;;;12.68;54.30;101671.66;1742656;81;22845;-42
2022/05/08 04:31:17;;;;;;;6.05;2.75;;;;;;;12.84;53.28;101671.97;1768050;81;20925;-42
2022/05/08 04:33:44;;;;;;;9.10;2.60;;;;;;;13.02;52.77;101670.94;1768112;80;20972;-43
2022/05/08 04:36:11;;;;;;;13.50;3.17;;;;;;;13.23;51.66;101664.66;1771225;80;21477;-43
2022/05/08 04:38:38;;;;;;;7.87;2.30;;;;;;;13.47;50.92;101667.91;1775443;80;20956;-43
2022/05/08 04:41:05;;;;;;;34.43;3.95;;;;;;;13.73;51.21;101670.64;1775554;80;21140;-43
2022/05/08 04:43:33;;;;;;;13.08;2.80;;;;;;;13.92;49.42;101667.39;1775352;80;20960;-43
2022/05/08 04:46:00;;;;;;;11.63;2.35;;;;;;;14.15;47.63;101664.91;1775558;80;20984;-42
2022/05/08 04:48:27;;;;;;;4.95;2.35;;;;;;;14.44;46.66;101661.02;1775756;80;20949;-43
2022/05/08 04:50:54;;;;;;;7.12;2.47;;;;;;;14.77;44.39;101664.41;1775562;80;20877;-43
2022/05/08 04:53:20;;;;;;;10.20;2.40;;;;;;;14.98;43.24;101663.20;1775609;80;21097;-43
2022/05/08 04:55:47;;;;;;;4.90;2.40;;;;;;;15.28;41.50;101662.64;1775532;80;20940;-43
2022/05/08 04:58:14;;;;;;;8.00;2.40;;;;;;;15.48;39.34;101664.42;1772773;80;20972;-43
2022/05/08 05:00:41;;;;;;;4.92;2.08;;;;;;;15.61;40.00;101663.73;1775531;80;21510;-43
2022/05/08 05:03:08;;;;;;;9.40;2.95;;;;;;;15.69;37.58;101661.44;1775746;80;21365;-43
2022/05/08 05:05:35;;;;;;;5.22;2.25;;;;;;;15.81;39.09;101662.47;1775637;80;21145;-43
2022/05/08 05:08:01;;;;;;;12.00;3.00;;;;;;;16.03;37.20;101665.95;1775684;80;21023;-43
2022/05/08 05:10:30;;;;;;;6.05;2.10;;;;;;;16.21;36.52;101662.06;1775836;80;20897;-43
2022/05/08 05:12:56;;;;;;;10.32;2.60;;;;;;;16.38;37.81;101661.23;1775764;80;21450;-43
2022/05/08 05:15:24;;;;;;;14.03;2.67;;;;;;;16.64;38.18;101659.74;1775785;80;20974;-42
2022/05/08 05:17:53;;;;;;;19.25;3.45;;;;;;;16.94;35.89;101653.78;1775654;80;22476;-43
2022/05/08 05:20:20;;;;;;;18.40;2.40;;;;;;;17.06;35.21;101662.62;1775213;80;20967;-43
2022/05/08 05:22:48;;;;;;;55.15;4.65;;;;;;;17.21;35.95;101666.58;1775543;80;20937;-43
2022/05/08 05:25:14;;;;;;;26.20;2.80;;;;;;;17.45;35.36;101658.95;1775545;80;20968;-43
2022/05/08 05:27:41;;;;;;;35.90;3.58;;;;;;;17.59;34.90;101659.88;1775844;80;21550;-43
2022/05/08 05:30:10;;;;;;;28.60;3.05;;;;;;;17.60;34.19;101660.74;1775583;80;21310;-44
2022/05/08 05:32:37;;;;;;;43.75;4.50;;;;;;;17.69;34.16;101660.47;1775532;80;21375;-44
2022/05/08 05:35:05;;;;;;;13.58;2.70;;;;;;;17.73;34.15;101656.00;1775621;80;20987;-43
2022/05/08 05:37:34;;;;;;;33.75;3.15;;;;;;;17.85;33.34;101661.33;1770790;80;20901;-42
2022/05/08 05:40:01;;;;;;;42.95;3.77;;;;;;;17.91;34.01;101663.29;1770016;80;21480;-42
2022/05/08 05:42:27;;;;;;;14.23;2.83;;;;;;;17.92;33.99;101660.23;1770254;81;21163;-44
2022/05/08 05:44:55;;;;;;;7.08;2.15;;;;;;;17.99;33.29;101663.06;1770175;80;20909;-43
2022/05/08 05:50:09;;;;;;;60.33;4.17;;;;;;;18.07;32.90;101660.25;1770439;81;20873;-42
2022/05/08 05:52:36;;;;;;;42.08;5.05;;;;;;;18.04;34.05;101662.97;1770236;80;21598;-42
2022/05/08 05:55:06;;;;;;;25.05;3.70;;;;;;;18.08;33.48;101662.84;1770088;81;21132;-43
2022/05/08 05:57:34;;;;;;;30.30;3.25;;;;;;;18.27;33.50;101666.16;1750869;81;20964;-42
2022/05/08 06:00:02;;;;;;;21.73;3.20;;;;;;;18.38;32.76;101661.45;1770128;81;20933;-42
2022/05/08 06:02:31;;;;;;;34.30;3.60;;;;;;;18.51;32.98;101655.80;1770722;80;20928;-43
2022/05/08 06:04:58;;;;;;;17.67;2.35;;;;;;;18.51;33.19;101659.73;1770213;80;20925;-43
2022/05/08 06:07:25;;;;;;;37.78;3.47;;;;;;;18.42;32.83;101653.48;1770132;80;21210;-42
2022/05/08 06:09:51;;;;;;;36.95;3.87;;;;;;;18.49;32.08;101662.42;1770007;81;21019;-43
2022/05/08 06:12:18;;;;;;;16.80;2.27;;;;;;;18.50;31.44;101663.26;1770116;80;21015;-43
2022/05/08 06:14:46;;;;;;;36.85;3.60;;;;;;;18.51;31.55;101668.47;1770141;80;20940;-43
2022/05/08 06:17:13;;;;;;;15.48;2.25;;;;;;;18.57;30.11;101663.48;1770137;81;20933;-42
2022/05/08 06:19:40;;;;;;;25.48;3.12;;;;;;;18.57;30.66;101658.68;1770047;80;21079;-43
2022/05/08 06:22:06;;;;;;;41.35;3.77;;;;;;;18.51;30.55;101667.59;1770079;81;20920;-43
2022/05/08 06:24:35;;;;;;;21.20;3.02;;;;;;;18.46;30.40;101664.27;1770146;80;20979;-42
2022/05/08 06:27:03;;;;;;;71.37;5.28;;;;;;;18.51;30.08;101664.97;1770130;81;21000;-43
2022/05/08 06:29:30;;;;;;;39.25;3.80;;;;;;;18.47;31.26;101663.36;1770293;81;20928;-43
2022/05/08 06:31:57;;;;;;;69.70;4.72;;;;;;;18.46;30.38;101666.89;1770100;80;21049;-43
2022/05/08 06:34:24;;;;;;;9.38;2.55;;;;;;;18.48;30.97;101662.45;1769986;80;20975;-42
2022/05/08 06:36:50;;;;;;;7.05;2.30;;;;;;;18.51;30.24;101661.04;1770200;80;21490;-43
2022/05/08 06:39:19;;;;;;;9.88;2.08;;;;;;;18.45;29.81;101661.25;1770093;80;20980;-43
2022/05/08 06:41:45;;;;;;;30.92;3.17;;;;;;;18.55;30.08;101656.09;1770057;80;20909;-44
2022/05/08 06:44:13;;;;;;;9.55;1.87;;;;;;;18.71;30.70;101659.53;1770121;81;22064;-43
2022/05/08 06:46:41;;;;;;;16.62;2.60;;;;;;;18.75;29.17;101658.51;1770102;81;21530;-43
2022/05/08 06:49:07;;;;;;;11.50;2.33;;;;;;;18.83;29.92;101655.20;1770068;80;21550;-43
2022/05/08 06:51:34;;;;;;;10.25;3.10;;;;;;;18.93;30.25;101655.70;1770179;80;20874;-43
2022/05/08 06:54:02;;;;;;;10.65;2.37;;;;;;;18.93;29.47;101655.70;1770262;80;20988;-43
2022/05/08 06:56:31;;;;;;;34.20;3.42;;;;;;;18.98;29.67;101652.94;1770149;81;21907;-43
2022/05/08 07:01:44;;;;;;;16.02;2.92;;;;;;;18.96;30.06;101651.69;1770299;81;22160;-43
2022/05/08 07:04:11;;;;;;;18.80;2.35;;;;;;;19.04;29.47;101656.23;1770224;81;20924;-43
2022/05/08 07:06:39;;;;;;;32.45;3.95;;;;;;;19.13;29.03;101656.81;1770190;80;21027;-42
2022/05/08 07:09:07;;;;;;;24.40;2.85;;;;;;;19.23;28.93;101653.81;1770221;81;21166;-43
2022/05/08 07:11:33;;;;;;;43.05;4.12;;;;;;;19.32;28.67;101654.37;1769994;81;20972;-43
2022/05/08 07:14:01;;;;;;;78.67;5.15;;;;;;;19.39;30.00;101655.41;1770048;80;21057;-43
2022/05/08 07:16:27;;;;;;;21.12;2.17;;;;;;;19.62;29.42;101654.18;1770019;81;20933;-44
2022/05/08 07:18:54;;;;;;;32.93;3.42;;;;;;;19.79;28.38;101653.06;1770186;81;20945;-43
2022/05/08 07:21:21;;;;;;;12.13;2.75;;;;;;;19.93;28.17;101653.03;1770208;81;21498;-42
2022/05/08 07:23:48;;;;;;;21.82;2.77;;;;;;;19.87;26.98;101652.77;1770096;81;20881;-44
2022/05/08 07:26:14;;;;;;;9.45;2.35;;;;;;;19.70;27.11;101653.42;1770126;81;21027;-43
2022/05/08 07:28:42;;;;;;;21.87;2.30;;;;;;;19.64;27.84;101653.19;1770137;81;21017;-42
2022/05/08 07:31:08;;;;;;;31.87;3.35;;;;;;;19.70;27.58;101653.86;1770078;81;20976;-43
2022/05/08 07:33:38;;;;;;;19.90;3.37;;;;;;;19.67;26.60;101654.86;1770446;81;21135;-48
2022/05/08 07:36:13;;;;;;;23.38;3.25;;;;;;;19.80;26.22;101648.20;1770061;80;20885;-44
2022/05/08 07:38:45;;;;;;;10.93;2.30;;;;;;;19.87;27.04;101649.30;1769958;81;20881;-43
2022/05/08 07:41:14;;;;;;;4.78;1.60;;;;;;;19.93;25.49;101651.72;1770040;80;20932;-42
2022/05/08 07:43:45;;;;;;;22.13;3.30;;;;;;;20.04;25.45;101653.45;1770178;80;21023;-43
2022/05/08 07:46:13;;;;;;;14.95;3.22;;;;;;;20.27;25.45;101648.21;1770118;80;22245;-43
2022/05/08 07:48:41;;;;;;;21.23;2.72;;;;;;;20.53;26.08;101644.49;1769980;80;20897;-44
2022/05/08 07:51:08;;;;;;;17.95;2.62;;;;;;;20.76;26.06;101640.03;1769982;80;21671;-43
2022/05/08 07:53:34;;;;;;;11.20;2.35;;;;;;;21.01;26.69;101639.01;1770079;80;20885;-43
2022/05/08 07:56:01;;;;;;;9.70;1.72;;;;;;;21.07;25.52;101640.05;1769996;80;20917;-42
2022/05/08 07:58:31;;;;;;;8.38;1.87;;;;;;;21.17;24.56;101632.16;1770031;80;21025;-43
2022/05/08 08:00:57;;;;;;;48.83;3.83;;;;;;;21.41;25.09;101637.23;1769881;80;20889;-43
2022/05/08 08:03:26;;;;;;;10.63;2.67;;;;;;;21.64;23.98;101634.01;1770025;81;21039;-43
2022/05/08 08:05:53;;;;;;;7.22;2.70;;;;;;;21.65;24.28;101628.68;1770046;81;21055;-43
2022/05/08 08:08:25;;;;;;;34.85;3.58;;;;;;;21.84;23.74;101627.82;1770060;81;21035;-44
2022/05/08 08:10:55;;;;;;;10.98;2.00;;;;;;;21.95;23.77;101629.95;1770008;81;21111;-44
2022/05/08 08:13:24;;;;;;;7.97;1.72;;;;;;;21.96;22.57;101631.66;1770028;81;20921;-44
2022/05/08 08:15:52;;;;;;;4.92;1.60;;;;;;;22.06;22.88;101634.22;1770167;81;20972;-44
2022/05/08 08:18:19;;;;;;;78.92;5.67;;;;;;;22.08;21.55;101637.63;1769960;81;20996;-44
2022/05/08 08:20:45;;;;;;;9.38;2.40;;;;;;;22.14;22.70;101634.33;1770091;80;20905;-44
2022/05/08 08:23:12;;;;;;;2.17;1.50;;;;;;;22.27;22.12;101634.10;1770253;81;21526;-44
2022/05/08 08:25:39;;;;;;;7.97;2.17;;;;;;;22.49;21.14;101631.75;1770008;80;20913;-44
2022/05/08 08:28:06;;;;;;;10.88;1.55;;;;;;;22.81;21.00;101624.83;1769997;81;21120;-43
2022/05/08 08:30:33;;;;;;;6.60;1.57;;;;;;;23.03;19.68;101622.39;1769921;80;21495;-43
2022/05/08 08:33:00;;;;;;;9.53;1.77;;;;;;;22.84;21.49;101621.64;1770024;80;21538;-44
2022/05/08 08:35:29;;;;;;;9.58;1.60;;;;;;;22.65;20.26;101614.22;1769983;80;21227;-44
2022/05/08 08:37:56;;;;;;;4.12;1.55;;;;;;;22.32;21.02;101616.75;1769993;80;21420;-44
2022/05/08 08:40:24;;;;;;;5.65;1.72;;;;;;;22.06;21.78;101616.25;1769999;80;20996;-45
2022/05/08 08:42:51;;;;;;;10.43;2.27;;;;;;;22.16;22.09;101621.45;1750442;81;20956;-45
2022/05/08 08:48:11;;;;;;;7.90;1.75;;;;;;;22.63;20.44;101612.13;1770002;81;21165;-44
2022/05/08 08:53:05;;;;;;;5.05;1.87;;;;;;;23.04;20.99;101610.90;1816203;79;22584;-43
2022/05/08 08:55:33;;;;;;;21.90;3.77;;;;;;;22.97;21.18;101612.13;1789329;80;20833;-43
2022/05/08 08:58:00;;;;;;;11.45;2.20;;;;;;;23.00;23.70;101620.37;1758726;80;21239;-43
2022/05/08 09:00:27;;;;;;;19.85;3.17;;;;;;;23.00;20.62;101615.96;1789148;80;20912;-42
2022/05/08 09:02:55;;;;;;;18.00;2.45;;;;;;;22.85;20.56;101614.11;1789198;80;20927;-42
2022/05/08 09:05:24;;;;;;;3.62;1.95;;;;;;;22.74;20.66;101615.53;1789087;80;21076;-43
2022/05/08 09:07:55;;;;;;;8.50;2.02;;;;;;;22.62;21.59;101611.74;1789381;80;21619;-43
2022/05/08 09:10:25;;;;;;;7.15;2.12;;;;;;;22.85;20.26;101609.67;1758798;80;21874;-44
2022/05/08 09:13:01;;;;;;;7.35;1.82;;;;;;;23.19;20.64;101600.43;1789114;80;21545;-44
2022/05/08 09:15:31;;;;;;;7.17;1.60;;;;;;;23.52;20.69;101596.45;1789376;80;21462;-44
2022/05/08 09:18:08;;;;;;;5.60;2.02;;;;;;;23.58;20.20;101587.80;1788302;80;20971;-44
2022/05/08 09:20:41;;;;;;;13.32;1.65;;;;;;;23.68;19.77;101595.61;1789181;80;20932;-44
2022/05/08 09:23:18;;;;;;;4.35;1.95;;;;;;;23.64;20.13;101587.47;1789234;80;21237;-44
2022/05/08 09:25:51;;;;;;;3.45;1.65;;;;;;;23.61;20.03;101591.58;1789145;80;20924;-44
2022/05/08 09:28:29;;;;;;;7.40;1.80;;;;;;;23.62;20.28;101584.91;1789331;80;20943;-44
2022/05/08 09:31:08;;;;;;;10.58;1.70;;;;;;;23.65;20.57;101583.41;1789241;80;20920;-45
2022/05/08 09:33:45;;;;;;;19.73;2.30;;;;;;;23.74;21.75;101576.75;1787952;80;21422;-45
2022/05/08 09:36:22;;;;;;;10.90;2.47;;;;;;;24.08;20.57;101580.13;1788401;80;20999;-43
2022/05/08 09:38:54;;;;;;;9.45;2.02;;;;;;;24.33;21.52;101580.02;1789081;80;21038;-44
2022/05/08 09:41:32;;;;;;;8.85;2.40;;;;;;;24.32;20.02;101575.66;1772056;80;20920;-43
2022/05/08 09:44:16;;;;;;;11.80;1.72;;;;;;;24.18;20.01;101573.00;1726267;83;21461;-44
2022/05/08 09:46:48;;;;;;;6.45;2.02;;;;;;;24.13;20.03;101577.71;1721177;83;21003;-44
2022/05/08 09:49:20;;;;;;;6.37;2.27;;;;;;;23.71;20.89;101575.61;1720999;83;21165;-45
2022/05/08 09:51:47;;;;;;;4.58;1.85;;;;;;;23.74;20.73;101578.53;1715793;83;21530;-44
2022/05/08 09:54:16;;;;;;;4.15;2.10;;;;;;;23.93;21.32;101581.00;1705708;84;21084;-44
2022/05/08 09:56:44;;;;;;;29.00;2.92;;;;;;;24.19;20.79;101572.89;1705877;84;20945;-43
2022/05/08 09:59:11;;;;;;;7.15;2.72;;;;;;;24.38;20.33;101572.68;1705915;84;20992;-44
2022/05/08 10:01:39;;;;;;;6.05;2.30;;;;;;;24.46;20.23;101566.91;1705675;84;21179;-45
2022/05/08 10:04:05;;;;;;;15.35;2.45;;;;;;;24.34;20.87;101567.16;1705087;84;20996;-44
2022/05/08 10:06:36;;;;;;;11.95;2.30;;;;;;;24.28;19.45;101569.34;1705341;84;21060;-44
2022/05/08 10:14:36;;;;;;;4.40;2.10;;;;;;;24.01;19.40;101556.31;1705533;84;21859;-45
2022/05/08 10:17:04;;;;;;;14.40;2.75;;;;;;;24.06;19.88;101556.05;1705290;84;20945;-45
2022/05/08 10:19:36;;;;;;;6.35;2.00;;;;;;;24.02;19.95;101545.28;1705510;84;21529;-45
2022/05/08 10:22:07;;;;;;;6.30;2.45;;;;;;;24.38;20.63;101539.61;1705254;84;21008;-45
2022/05/08 10:24:46;;;;;;;7.83;1.82;;;;;;;24.37;19.41;101539.20;1705271;84;20929;-45
2022/05/08 10:27:22;;;;;;;5.35;2.10;;;;;;;24.61;19.38;101532.05;1703568;84;21106;-43
2022/05/08 10:29:55;;;;;;;15.48;2.05;;;;;;;24.95;19.37;101531.78;1685181;84;21004;-45
2022/05/08 10:32:35;;;;;;;27.90;3.55;;;;;;;25.04;19.20;101522.42;1705212;84;20878;-45
2022/05/08 10:35:21;;;;;;;8.35;2.50;;;;;;;24.98;20.12;101525.46;1705341;84;20933;-45
2022/05/08 10:38:05;;;;;;;15.85;2.77;;;;;;;24.79;18.95;101514.69;1705506;84;20925;-45
2022/05/08 10:40:33;;;;;;;36.23;3.25;;;;;;;24.53;19.74;101518.44;1696369;84;21952;-45
2022/05/08 10:43:01;;;;;;;9.18;2.33;;;;;;;24.39;18.92;101512.21;1705460;82;21490;-45
2022/05/08 10:45:38;;;;;;;15.85;2.27;;;;;;;24.27;19.41;101511.61;1705254;84;21000;-45
2022/05/08 10:48:12;;;;;;;11.28;2.17;;;;;;;24.39;19.42;101502.95;1705395;84;20910;-44
2022/05/08 10:50:44;;;;;;;7.70;2.00;;;;;;;24.04;18.76;101511.67;1705572;84;21016;-44
2022/05/08 10:53:32;;;;;;;8.03;2.25;;;;;;;24.07;19.95;101507.52;1719555;83;22063;-44
2022/05/08 10:56:08;;;;;;;12.73;2.08;;;;;;;24.21;19.89;101501.41;1724149;83;20939;-45
2022/05/08 10:58:40;;;;;;;27.17;4.00;;;;;;;24.22;20.06;101502.62;1723917;83;20901;-44
2022/05/08 11:01:15;;;;;;;7.47;2.15;;;;;;;24.26;20.27;101499.33;1722355;83;21030;-44
2022/05/08 11:03:37;;;;;;;4.25;2.33;;;;;;;24.23;18.88;101495.06;1722410;83;21019;-44
2022/05/08 11:06:06;;;;;;;9.78;2.30;;;;;;;24.12;18.85;101493.55;1724141;83;21154;-44
2022/05/08 11:08:35;;;;;;;7.55;2.00;;;;;;;23.77;20.41;101492.49;1723844;83;20940;-44
2022/05/08 11:11:08;;;;;;;11.05;2.27;;;;;;;23.51;19.48;101486.91;1703947;84;20966;-45
2022/05/08 11:13:49;;;;;;;13.03;2.25;;;;;;;23.60;19.72;101479.77;1724156;83;20943;-44
2022/05/08 11:16:34;;;;;;;8.78;2.95;;;;;;;23.81;18.76;101480.30;1723791;83;20893;-44
2022/05/08 11:19:01;;;;;;;3.90;2.05;;;;;;;23.82;19.56;101478.53;1703862;84;21088;-44
2022/05/08 11:21:29;;;;;;;15.10;2.30;;;;;;;23.67;19.89;101478.47;1703955;83;21061;-44
2022/05/08 11:23:56;;;;;;;10.72;2.22;;;;;;;23.69;20.28;101478.39;1703964;84;21029;-45
2022/05/08 11:26:32;;;;;;;14.70;2.52;;;;;;;23.94;19.59;101471.67;1703976;84;21045;-46
2022/05/08 11:29:00;;;;;;;65.62;5.12;;;;;;;24.28;19.57;101464.87;1704003;84;20959;-45
2022/05/08 11:31:31;;;;;;;21.45;2.98;;;;;;;23.96;19.82;101464.01;1703859;83;21090;-45
2022/05/08 11:36:44;;;;;;;4.08;2.20;;;;;;;24.11;19.34;101462.76;1703941;83;20974;-46
2022/05/08 11:39:14;;;;;;;3.33;1.80;;;;;;;23.96;18.34;101460.53;1724251;83;20943;-46
2022/05/08 11:41:47;;;;;;;3.33;2.10;;;;;;;23.86;19.91;101449.65;1723844;83;20952;-44
2022/05/08 11:44:18;;;;;;;7.15;2.25;;;;;;;23.74;19.31;101446.39;1724030;82;21600;-44
2022/05/08 11:46:49;;;;;;;7.53;2.35;;;;;;;23.87;18.65;101444.74;1723672;83;20932;-45
2022/05/08 11:49:27;;;;;;;6.62;1.98;;;;;;;24.17;18.40;101439.91;1724102;81;20987;-44
2022/05/08 11:52:02;;;;;;;7.92;1.98;;;;;;;24.32;18.17;101436.80;1693107;84;20974;-45
2022/05/08 11:54:35;;;;;;;12.97;2.27;;;;;;;24.56;18.36;101428.77;1738549;82;20882;-44